sensor_id;sensor_type;location;lat;lon;timestamp;pressure;altitude;pressure_sealevel;temperature;humidity
64158;BME280;50449;51.528;5.076;2024-03-29T00:01:36;98936.97;;;12.20;57.93
64158;BME280;50449;51.528;5.076;2024-03-29T00:04:02;98942.97;;;12.17;57.85
64158;BME280;50449;51.528;5.076;2024-03-29T00:06:27;98924.31;;;12.16;57.86
64158;BME280;50449;51.528;5.076;2024-03-29T00:08:52;98930.00;;;12.14;57.69
64158;BME280;50449;51.528;5.076;2024-03-29T00:11:18;98933.03;;;12.12;57.90
64158;BME280;50449;51.528;5.076;2024-03-29T00:13:43;98941.16;;;12.12;57.79
64158;BME280;50449;51.528;5.076;2024-03-29T00:16:08;98942.53;;;12.10;57.99
64158;BME280;50449;51.528;5.076;2024-03-29T00:18:34;98951.47;;;12.10;58.06
64158;BME280;50449;51.528;5.076;2024-03-29T00:20:59;98948.75;;;12.10;58.11
64158;BME280;50449;51.528;5.076;2024-03-29T00:23:25;98950.94;;;12.08;57.97
64158;BME280;50449;51.528;5.076;2024-03-29T00:25:50;98954.75;;;12.07;58.06
64158;BME280;50449;51.528;5.076;2024-03-29T00:28:16;98965.59;;;12.07;58.00
64158;BME280;50449;51.528;5.076;2024-03-29T00:30:41;98969.38;;;12.06;57.87
64158;BME280;50449;51.528;5.076;2024-03-29T00:33:07;98968.31;;;12.07;57.96
64158;BME280;50449;51.528;5.076;2024-03-29T00:35:32;98964.75;;;12.07;57.87
64158;BME280;50449;51.528;5.076;2024-03-29T00:37:58;98957.75;;;12.06;57.69
64158;BME280;50449;51.528;5.076;2024-03-29T00:40:23;98963.44;;;12.04;58.00
64158;BME280;50449;51.528;5.076;2024-03-29T00:42:49;98971.56;;;12.04;58.25
64158;BME280;50449;51.528;5.076;2024-03-29T00:45:14;98966.16;;;12.04;57.88
64158;BME280;50449;51.528;5.076;2024-03-29T00:47:40;98976.19;;;12.04;58.09
64158;BME280;50449;51.528;5.076;2024-03-29T00:50:05;98976.97;;;12.04;58.27
64158;BME280;50449;51.528;5.076;2024-03-29T00:52:34;98987.00;;;12.04;58.26
64158;BME280;50449;51.528;5.076;2024-03-29T00:55:00;98983.50;;;12.03;58.21
64158;BME280;50449;51.528;5.076;2024-03-29T00:57:25;98983.50;;;12.03;58.39
64158;BME280;50449;51.528;5.076;2024-03-29T00:59:50;98981.09;;;12.02;58.24
64158;BME280;50449;51.528;5.076;2024-03-29T01:02:16;98978.38;;;12.02;58.39
64158;BME280;50449;51.528;5.076;2024-03-29T01:04:41;98975.19;;;12.00;58.21
64158;BME280;50449;51.528;5.076;2024-03-29T01:07:07;98982.47;;;11.99;58.09
64158;BME280;50449;51.528;5.076;2024-03-29T01:09:32;98981.69;;;11.99;58.41
64158;BME280;50449;51.528;5.076;2024-03-29T01:11:57;98989.00;;;11.98;58.38
64158;BME280;50449;51.528;5.076;2024-03-29T01:14:23;98981.16;;;11.97;58.48
64158;BME280;50449;51.528;5.076;2024-03-29T01:16:49;98977.66;;;11.96;58.36
64158;BME280;50449;51.528;5.076;2024-03-29T01:19:14;98971.44;;;11.96;58.32
64158;BME280;50449;51.528;5.076;2024-03-29T01:21:39;98959.31;;;11.93;58.48
64158;BME280;50449;51.528;5.076;2024-03-29T01:24:05;98952.31;;;11.92;58.25
64158;BME280;50449;51.528;5.076;2024-03-29T01:26:30;98958.81;;;11.91;58.21
64158;BME280;50449;51.528;5.076;2024-03-29T01:28:56;98952.09;;;11.88;58.02
64158;BME280;50449;51.528;5.076;2024-03-29T01:31:24;98944.75;;;11.89;58.31
64158;BME280;50449;51.528;5.076;2024-03-29T01:33:50;98928.06;;;11.87;58.25
64158;BME280;50449;51.528;5.076;2024-03-29T01:36:15;98923.69;;;11.86;58.03
64158;BME280;50449;51.528;5.076;2024-03-29T01:38:41;98927.50;;;11.85;58.40
64158;BME280;50449;51.528;5.076;2024-03-29T01:41:06;98920.97;;;11.86;58.73
64158;BME280;50449;51.528;5.076;2024-03-29T01:43:32;98913.19;;;11.84;58.35
64158;BME280;50449;51.528;5.076;2024-03-29T01:45:57;98922.38;;;11.83;58.56
64158;BME280;50449;51.528;5.076;2024-03-29T01:48:24;98927.00;;;11.83;58.54
64158;BME280;50449;51.528;5.076;2024-03-29T01:50:50;98929.19;;;11.81;58.54
64158;BME280;50449;51.528;5.076;2024-03-29T01:53:18;98927.59;;;11.80;58.46
64158;BME280;50449;51.528;5.076;2024-03-29T01:55:44;98938.69;;;11.78;58.62
64158;BME280;50449;51.528;5.076;2024-03-29T01:58:10;98927.88;;;11.78;58.42
64158;BME280;50449;51.528;5.076;2024-03-29T02:00:39;98938.69;;;11.78;58.19
64158;BME280;50449;51.528;5.076;2024-03-29T02:03:06;98927.88;;;11.78;58.29
64158;BME280;50449;51.528;5.076;2024-03-29T02:05:39;98938.69;;;11.78;58.45
64158;BME280;50449;51.528;5.076;2024-03-29T02:08:06;98956.53;;;11.79;58.18
64158;BME280;50449;51.528;5.076;2024-03-29T02:10:32;98940.09;;;11.76;58.42
64158;BME280;50449;51.528;5.076;2024-03-29T02:12:57;98938.50;;;11.75;58.58
64158;BME280;50449;51.528;5.076;2024-03-29T02:15:22;98957.41;;;11.75;58.52
64158;BME280;50449;51.528;5.076;2024-03-29T02:17:48;98962.84;;;11.75;58.29
64158;BME280;50449;51.528;5.076;2024-03-29T02:20:13;98949.31;;;11.75;58.53
64158;BME280;50449;51.528;5.076;2024-03-29T02:22:46;98962.31;;;11.73;58.54
64158;BME280;50449;51.528;5.076;2024-03-29T02:25:13;98963.41;;;11.72;58.77
64158;BME280;50449;51.528;5.076;2024-03-29T02:27:39;98976.91;;;11.72;58.79
64158;BME280;50449;51.528;5.076;2024-03-29T02:30:05;98973.41;;;11.71;58.67
64158;BME280;50449;51.528;5.076;2024-03-29T02:32:31;98962.59;;;11.71;58.56
64158;BME280;50449;51.528;5.076;2024-03-29T02:34:56;98978.03;;;11.70;58.89
64158;BME280;50449;51.528;5.076;2024-03-29T02:37:22;98978.03;;;11.70;58.68
64158;BME280;50449;51.528;5.076;2024-03-29T02:39:47;98983.44;;;11.70;58.83
64158;BME280;50449;51.528;5.076;2024-03-29T02:42:13;98983.44;;;11.70;58.94
64158;BME280;50449;51.528;5.076;2024-03-29T02:44:38;98995.38;;;11.69;58.65
64158;BME280;50449;51.528;5.076;2024-03-29T02:47:03;98981.00;;;11.69;58.67
64158;BME280;50449;51.528;5.076;2024-03-29T02:49:29;98969.72;;;11.67;58.48
64158;BME280;50449;51.528;5.076;2024-03-29T02:51:54;98981.59;;;11.66;58.42
64158;BME280;50449;51.528;5.076;2024-03-29T02:54:20;98971.09;;;11.64;58.45
64158;BME280;50449;51.528;5.076;2024-03-29T02:56:45;98982.19;;;11.63;58.65
64158;BME280;50449;51.528;5.076;2024-03-29T02:59:10;98982.78;;;11.60;58.58
64158;BME280;50449;51.528;5.076;2024-03-29T03:01:36;98988.47;;;11.58;58.97
64158;BME280;50449;51.528;5.076;2024-03-29T03:04:02;98991.19;;;11.58;58.92
64158;BME280;50449;51.528;5.076;2024-03-29T03:06:27;99002.78;;;11.59;58.66
64158;BME280;50449;51.528;5.076;2024-03-29T03:08:53;99005.50;;;11.59;58.73
64158;BME280;50449;51.528;5.076;2024-03-29T03:11:37;99004.41;;;11.60;58.89
64158;BME280;50449;51.528;5.076;2024-03-29T03:14:02;99007.94;;;11.60;59.26
64158;BME280;50449;51.528;5.076;2024-03-29T03:16:27;98997.38;;;11.59;58.75
64158;BME280;50449;51.528;5.076;2024-03-29T03:18:53;99005.81;;;11.57;58.84
64158;BME280;50449;51.528;5.076;2024-03-29T03:21:18;99003.09;;;11.57;58.79
64158;BME280;50449;51.528;5.076;2024-03-29T03:23:43;98991.78;;;11.55;58.69
64158;BME280;50449;51.528;5.076;2024-03-29T03:26:09;98992.28;;;11.57;58.74
64158;BME280;50449;51.528;5.076;2024-03-29T03:28:34;99002.31;;;11.57;58.84
64158;BME280;50449;51.528;5.076;2024-03-29T03:31:00;99000.09;;;11.59;58.97
64158;BME280;50449;51.528;5.076;2024-03-29T03:33:26;98990.09;;;11.59;58.92
64158;BME280;50449;51.528;5.076;2024-03-29T03:35:51;99002.78;;;11.59;59.08
64158;BME280;50449;51.528;5.076;2024-03-29T03:38:17;99009.03;;;11.59;58.89
64158;BME280;50449;51.528;5.076;2024-03-29T03:40:42;99006.59;;;11.58;58.86
64158;BME280;50449;51.528;5.076;2024-03-29T03:43:08;99010.91;;;11.59;58.87
64158;BME280;50449;51.528;5.076;2024-03-29T03:45:38;99003.09;;;11.57;59.06
64158;BME280;50449;51.528;5.076;2024-03-29T03:48:05;99005.81;;;11.57;58.97
64158;BME280;50449;51.528;5.076;2024-03-29T03:50:32;99009.31;;;11.58;59.12
64158;BME280;50449;51.528;5.076;2024-03-29T03:52:57;99018.22;;;11.58;59.00
64158;BME280;50449;51.528;5.076;2024-03-29T03:55:23;99028.25;;;11.58;59.14
64158;BME280;50449;51.528;5.076;2024-03-29T03:57:48;99037.94;;;11.59;58.94
64158;BME280;50449;51.528;5.076;2024-03-29T04:00:14;99037.16;;;11.58;59.28
64158;BME280;50449;51.528;5.076;2024-03-29T04:02:40;99041.47;;;11.59;59.11
64158;BME280;50449;51.528;5.076;2024-03-29T04:05:06;99042.28;;;11.60;59.15
64158;BME280;50449;51.528;5.076;2024-03-29T04:07:32;99046.88;;;11.59;59.42
64158;BME280;50449;51.528;5.076;2024-03-29T04:09:57;99051.47;;;11.59;59.18
64158;BME280;50449;51.528;5.076;2024-03-29T04:12:23;99049.59;;;11.59;59.56
64158;BME280;50449;51.528;5.076;2024-03-29T04:14:48;99063.13;;;11.59;59.53
64158;BME280;50449;51.528;5.076;2024-03-29T04:17:13;99063.13;;;11.59;59.50
64158;BME280;50449;51.528;5.076;2024-03-29T04:19:39;99054.19;;;11.59;59.32
64158;BME280;50449;51.528;5.076;2024-03-29T04:22:05;99053.38;;;11.58;59.50
64158;BME280;50449;51.528;5.076;2024-03-29T04:24:30;99050.69;;;11.58;59.80
64158;BME280;50449;51.528;5.076;2024-03-29T04:26:56;99043.66;;;11.57;59.89
64158;BME280;50449;51.528;5.076;2024-03-29T04:29:23;99043.94;;;11.56;59.56
64158;BME280;50449;51.528;5.076;2024-03-29T04:31:49;99053.16;;;11.55;59.79
64158;BME280;50449;51.528;5.076;2024-03-29T04:34:14;99039.94;;;11.53;59.92
64158;BME280;50449;51.528;5.076;2024-03-29T04:36:39;99061.88;;;11.52;59.96
64158;BME280;50449;51.528;5.076;2024-03-29T04:39:05;99047.50;;;11.51;59.82
64158;BME280;50449;51.528;5.076;2024-03-29T04:41:30;99057.25;;;11.52;59.90
64158;BME280;50449;51.528;5.076;2024-03-29T04:44:00;99047.25;;;11.53;59.98
64158;BME280;50449;51.528;5.076;2024-03-29T04:46:26;99055.06;;;11.54;59.96
64158;BME280;50449;51.528;5.076;2024-03-29T04:48:51;99062.34;;;11.54;59.96
64158;BME280;50449;51.528;5.076;2024-03-29T04:51:16;99055.06;;;11.54;59.97
64158;BME280;50449;51.528;5.076;2024-03-29T04:53:42;99042.63;;;11.53;60.24
64158;BME280;50449;51.528;5.076;2024-03-29T04:56:07;99044.53;;;11.53;60.14
64158;BME280;50449;51.528;5.076;2024-03-29T04:58:33;99041.84;;;11.53;60.06
64158;BME280;50449;51.528;5.076;2024-03-29T05:00:59;99031.00;;;11.53;60.38
64158;BME280;50449;51.528;5.076;2024-03-29T05:03:25;99041.03;;;11.52;60.08
64158;BME280;50449;51.528;5.076;2024-03-29T05:05:51;99042.09;;;11.51;60.21
64158;BME280;50449;51.528;5.076;2024-03-29T05:08:17;99028.59;;;11.51;60.36
64158;BME280;50449;51.528;5.076;2024-03-29T05:10:45;99024.28;;;11.50;60.19
64158;BME280;50449;51.528;5.076;2024-03-29T05:13:10;99035.91;;;11.51;60.44
64158;BME280;50449;51.528;5.076;2024-03-29T05:15:36;99041.31;;;11.51;60.17
64158;BME280;50449;51.528;5.076;2024-03-29T05:18:02;99040.50;;;11.50;60.52
64158;BME280;50449;51.528;5.076;2024-03-29T05:20:27;99038.91;;;11.49;60.21
64158;BME280;50449;51.528;5.076;2024-03-29T05:22:53;99032.41;;;11.50;60.40
64158;BME280;50449;51.528;5.076;2024-03-29T05:25:18;99026.19;;;11.50;60.34
64158;BME280;50449;51.528;5.076;2024-03-29T05:27:43;99025.41;;;11.49;60.52
64158;BME280;50449;51.528;5.076;2024-03-29T05:30:09;99025.09;;;11.51;60.34
64158;BME280;50449;51.528;5.076;2024-03-29T05:32:38;99029.69;;;11.50;60.39
64158;BME280;50449;51.528;5.076;2024-03-29T05:35:04;99026.19;;;11.50;60.27
64158;BME280;50449;51.528;5.076;2024-03-29T05:37:30;99033.19;;;11.51;60.39
64158;BME280;50449;51.528;5.076;2024-03-29T05:39:55;99032.41;;;11.50;60.34
64158;BME280;50449;51.528;5.076;2024-03-29T05:42:33;99038.91;;;11.49;60.56
64158;BME280;50449;51.528;5.076;2024-03-29T05:45:00;99044.31;;;11.49;60.54
64158;BME280;50449;51.528;5.076;2024-03-29T05:47:26;99057.00;;;11.48;60.48
64158;BME280;50449;51.528;5.076;2024-03-29T05:49:51;99062.41;;;11.48;60.63
64158;BME280;50449;51.528;5.076;2024-03-29T05:52:17;99059.72;;;11.48;60.59
64158;BME280;50449;51.528;5.076;2024-03-29T05:54:43;99065.94;;;11.49;60.42
64158;BME280;50449;51.528;5.076;2024-03-29T05:57:09;99062.41;;;11.48;60.43
64158;BME280;50449;51.528;5.076;2024-03-29T05:59:35;99060.53;;;11.49;60.75
64158;BME280;50449;51.528;5.076;2024-03-29T06:02:01;99059.72;;;11.48;60.86
64158;BME280;50449;51.528;5.076;2024-03-29T06:04:27;99065.13;;;11.48;60.55
64158;BME280;50449;51.528;5.076;2024-03-29T06:06:58;99065.13;;;11.48;60.61
64158;BME280;50449;51.528;5.076;2024-03-29T06:09:24;99072.44;;;11.48;60.71
64158;BME280;50449;51.528;5.076;2024-03-29T06:11:49;99075.13;;;11.48;60.46
64158;BME280;50449;51.528;5.076;2024-03-29T06:14:14;99081.66;;;11.47;60.78
64158;BME280;50449;51.528;5.076;2024-03-29T06:16:58;99071.13;;;11.45;60.84
64158;BME280;50449;51.528;5.076;2024-03-29T06:19:42;99073.03;;;11.45;60.79
64158;BME280;50449;51.528;5.076;2024-03-29T06:22:07;99072.50;;;11.43;60.99
64158;BME280;50449;51.528;5.076;2024-03-29T06:24:34;99077.09;;;11.42;60.99
64158;BME280;50449;51.528;5.076;2024-03-29T06:27:00;99090.63;;;11.42;60.93
64158;BME280;50449;51.528;5.076;2024-03-29T06:29:25;99086.28;;;11.41;60.85
64158;BME280;50449;51.528;5.076;2024-03-29T06:31:51;99082.78;;;11.41;61.20
64158;BME280;50449;51.528;5.076;2024-03-29T06:34:16;99078.19;;;11.41;60.98
64158;BME280;50449;51.528;5.076;2024-03-29T06:36:41;99076.31;;;11.42;60.94
64158;BME280;50449;51.528;5.076;2024-03-29T06:39:07;99074.69;;;11.41;61.00
64158;BME280;50449;51.528;5.076;2024-03-29T06:41:33;99063.88;;;11.41;61.20
64158;BME280;50449;51.528;5.076;2024-03-29T06:43:59;99078.19;;;11.41;61.17
64158;BME280;50449;51.528;5.076;2024-03-29T06:46:24;99055.75;;;11.41;61.08
64158;BME280;50449;51.528;5.076;2024-03-29T06:48:49;99042.25;;;11.41;60.85
64158;BME280;50449;51.528;5.076;2024-03-29T06:51:15;99065.78;;;11.40;61.17
64158;BME280;50449;51.528;5.076;2024-03-29T06:53:40;99074.69;;;11.41;61.18
64158;BME280;50449;51.528;5.076;2024-03-29T06:56:06;99070.91;;;11.42;60.96
64158;BME280;50449;51.528;5.076;2024-03-29T06:58:31;99072.78;;;11.41;61.09
64158;BME280;50449;51.528;5.076;2024-03-29T07:00:57;99083.59;;;11.41;60.99
64158;BME280;50449;51.528;5.076;2024-03-29T07:03:24;99072.78;;;11.41;61.02
64158;BME280;50449;51.528;5.076;2024-03-29T07:05:49;99080.09;;;11.41;60.95
64158;BME280;50449;51.528;5.076;2024-03-29T07:08:15;99092.81;;;11.40;61.18
64158;BME280;50449;51.528;5.076;2024-03-29T07:10:40;99086.59;;;11.40;61.11
64158;BME280;50449;51.528;5.076;2024-03-29T07:13:06;99097.41;;;11.40;61.41
64158;BME280;50449;51.528;5.076;2024-03-29T07:15:32;99100.13;;;11.40;61.05
64158;BME280;50449;51.528;5.076;2024-03-29T07:17:57;99095.50;;;11.40;61.22
64158;BME280;50449;51.528;5.076;2024-03-29T07:20:25;99101.19;;;11.39;61.23
64158;BME280;50449;51.528;5.076;2024-03-29T07:22:51;99112.00;;;11.39;61.47
64158;BME280;50449;51.528;5.076;2024-03-29T07:25:16;99117.41;;;11.39;61.40
64158;BME280;50449;51.528;5.076;2024-03-29T07:27:41;99129.06;;;11.39;61.16
64158;BME280;50449;51.528;5.076;2024-03-29T07:30:07;99110.41;;;11.38;61.27
64158;BME280;50449;51.528;5.076;2024-03-29T07:32:33;99106.59;;;11.39;61.33
64158;BME280;50449;51.528;5.076;2024-03-29T07:34:59;99106.59;;;11.39;61.35
64158;BME280;50449;51.528;5.076;2024-03-29T07:37:25;99110.41;;;11.38;61.29
64158;BME280;50449;51.528;5.076;2024-03-29T07:39:50;99105.81;;;11.38;61.13
64158;BME280;50449;51.528;5.076;2024-03-29T07:42:16;99117.72;;;11.37;61.17
64158;BME280;50449;51.528;5.076;2024-03-29T07:44:42;99120.44;;;11.37;61.43
64158;BME280;50449;51.528;5.076;2024-03-29T07:47:07;99129.34;;;11.38;61.22
64158;BME280;50449;51.528;5.076;2024-03-29T07:49:33;99122.03;;;11.38;61.34
64158;BME280;50449;51.528;5.076;2024-03-29T07:51:58;99095.78;;;11.39;61.23
64158;BME280;50449;51.528;5.076;2024-03-29T07:54:24;99105.81;;;11.38;61.38
64158;BME280;50449;51.528;5.076;2024-03-29T07:56:50;99117.41;;;11.39;61.49
64158;BME280;50449;51.528;5.076;2024-03-29T07:59:15;99116.63;;;11.38;61.42
64158;BME280;50449;51.528;5.076;2024-03-29T08:01:44;99111.22;;;11.38;61.40
64158;BME280;50449;51.528;5.076;2024-03-29T08:04:09;99122.81;;;11.39;61.63
64158;BME280;50449;51.528;5.076;2024-03-29T08:06:35;99113.13;;;11.38;61.22
64158;BME280;50449;51.528;5.076;2024-03-29T08:09:00;99119.63;;;11.37;61.35
64158;BME280;50449;51.528;5.076;2024-03-29T08:11:25;99111.22;;;11.38;61.24
64158;BME280;50449;51.528;5.076;2024-03-29T08:13:51;99105.81;;;11.38;61.33
64158;BME280;50449;51.528;5.076;2024-03-29T08:16:17;99100.13;;;11.40;61.27
64158;BME280;50449;51.528;5.076;2024-03-29T08:18:45;99102.81;;;11.40;61.46
64158;BME280;50449;51.528;5.076;2024-03-29T08:21:10;99100.91;;;11.40;61.46
64158;BME280;50449;51.528;5.076;2024-03-29T08:23:41;99109.81;;;11.41;61.44
64158;BME280;50449;51.528;5.076;2024-03-29T08:26:06;99118.75;;;11.41;61.29
64158;BME280;50449;51.528;5.076;2024-03-29T08:28:33;99128.47;;;11.42;61.59
64158;BME280;50449;51.528;5.076;2024-03-29T08:31:03;99120.38;;;11.42;61.59
64158;BME280;50449;51.528;5.076;2024-03-29T08:33:28;99115.47;;;11.44;61.50
64158;BME280;50449;51.528;5.076;2024-03-29T08:35:56;99120.88;;;11.44;61.37
64158;BME280;50449;51.528;5.076;2024-03-29T08:38:21;99112.47;;;11.46;61.43
64158;BME280;50449;51.528;5.076;2024-03-29T08:40:47;99126.50;;;11.48;61.35
64158;BME280;50449;51.528;5.076;2024-03-29T08:43:14;99125.44;;;11.49;61.38
64158;BME280;50449;51.528;5.076;2024-03-29T08:45:40;99136.25;;;11.49;61.25
64158;BME280;50449;51.528;5.076;2024-03-29T08:48:09;99147.56;;;11.51;61.36
64158;BME280;50449;51.528;5.076;2024-03-29T08:50:35;99139.19;;;11.53;61.70
64158;BME280;50449;51.528;5.076;2024-03-29T08:53:01;99143.47;;;11.54;61.32
64158;BME280;50449;51.528;5.076;2024-03-29T08:55:31;99145.91;;;11.55;61.47
64158;BME280;50449;51.528;5.076;2024-03-29T08:57:58;99151.31;;;11.55;61.41
64158;BME280;50449;51.528;5.076;2024-03-29T09:00:25;99145.91;;;11.55;61.56
64158;BME280;50449;51.528;5.076;2024-03-29T09:02:50;99139.41;;;11.56;61.64
64158;BME280;50449;51.528;5.076;2024-03-29T09:05:16;99133.97;;;11.56;61.81
64158;BME280;50449;51.528;5.076;2024-03-29T09:07:41;99129.41;;;11.57;61.71
64158;BME280;50449;51.528;5.076;2024-03-29T09:10:07;99131.81;;;11.58;61.91
64158;BME280;50449;51.528;5.076;2024-03-29T09:12:33;99145.06;;;11.60;61.62
64158;BME280;50449;51.528;5.076;2024-03-29T09:14:58;99148.81;;;11.59;61.83
64158;BME280;50449;51.528;5.076;2024-03-29T09:17:24;99152.38;;;11.59;61.99
64158;BME280;50449;51.528;5.076;2024-03-29T09:19:51;99149.34;;;11.61;61.73
64158;BME280;50449;51.528;5.076;2024-03-29T09:22:19;99151.47;;;11.64;62.30
64158;BME280;50449;51.528;5.076;2024-03-29T09:24:45;99139.06;;;11.63;62.02
64158;BME280;50449;51.528;5.076;2024-03-29T09:27:10;99144.19;;;11.64;62.21
64158;BME280;50449;51.528;5.076;2024-03-29T09:29:36;99160.41;;;11.64;62.27
64158;BME280;50449;51.528;5.076;2024-03-29T09:32:01;99165.81;;;11.64;62.55
64158;BME280;50449;51.528;5.076;2024-03-29T09:34:29;99168.53;;;11.64;62.70
64158;BME280;50449;51.528;5.076;2024-03-29T09:36:56;99162.28;;;11.64;62.92
64158;BME280;50449;51.528;5.076;2024-03-29T09:39:21;99175.53;;;11.65;62.66
64158;BME280;50449;51.528;5.076;2024-03-29T09:41:47;99178.75;;;11.67;62.67
64158;BME280;50449;51.528;5.076;2024-03-29T09:44:12;99186.81;;;11.73;62.63
64158;BME280;50449;51.528;5.076;2024-03-29T09:46:38;99184.63;;;11.75;62.79
64158;BME280;50449;51.528;5.076;2024-03-29T09:49:06;99188.94;;;11.76;62.87
64158;BME280;50449;51.528;5.076;2024-03-29T09:51:32;99191.38;;;11.77;63.21
64158;BME280;50449;51.528;5.076;2024-03-29T09:53:59;99187.28;;;11.80;62.85
64158;BME280;50449;51.528;5.076;2024-03-29T09:56:26;99181.28;;;11.83;63.08
64158;BME280;50449;51.528;5.076;2024-03-29T09:58:52;99182.09;;;11.83;63.36
64158;BME280;50449;51.528;5.076;2024-03-29T10:01:18;99178.00;;;11.86;63.16
64158;BME280;50449;51.528;5.076;2024-03-29T10:03:48;99171.22;;;11.88;63.20
64158;BME280;50449;51.528;5.076;2024-03-29T10:06:17;99169.31;;;11.89;63.55
64158;BME280;50449;51.528;5.076;2024-03-29T10:08:45;99160.13;;;11.90;63.47
64158;BME280;50449;51.528;5.076;2024-03-29T10:11:10;99168.78;;;11.92;63.80
64158;BME280;50449;51.528;5.076;2024-03-29T10:13:36;99165.75;;;11.94;63.74
64158;BME280;50449;51.528;5.076;2024-03-29T10:16:03;99174.41;;;11.96;63.68
64158;BME280;50449;51.528;5.076;2024-03-29T10:18:29;99183.03;;;11.98;63.98
64158;BME280;50449;51.528;5.076;2024-03-29T10:21:05;99173.22;;;12.02;63.84
64158;BME280;50449;51.528;5.076;2024-03-29T10:23:31;99189.97;;;12.04;63.71
64158;BME280;50449;51.528;5.076;2024-03-29T10:25:57;99198.91;;;12.04;63.63
64158;BME280;50449;51.528;5.076;2024-03-29T10:28:23;99200.75;;;12.09;63.84
64158;BME280;50449;51.528;5.076;2024-03-29T10:30:49;99205.59;;;12.12;63.83
64158;BME280;50449;51.528;5.076;2024-03-29T10:33:17;99186.84;;;12.16;63.94
64158;BME280;50449;51.528;5.076;2024-03-29T10:35:43;99181.97;;;12.18;64.00
64158;BME280;50449;51.528;5.076;2024-03-29T10:38:09;99201.44;;;12.20;64.09
64158;BME280;50449;51.528;5.076;2024-03-29T10:40:38;99197.91;;;12.19;63.94
64158;BME280;50449;51.528;5.076;2024-03-29T10:43:04;99191.41;;;12.20;64.36
64158;BME280;50449;51.528;5.076;2024-03-29T10:45:34;99198.66;;;12.25;64.04
64158;BME280;50449;51.528;5.076;2024-03-29T10:48:02;99199.66;;;12.29;63.86
64158;BME280;50449;51.528;5.076;2024-03-29T10:50:31;99230.19;;;12.34;64.03
64158;BME280;50449;51.528;5.076;2024-03-29T10:53:00;99215.56;;;12.36;64.00
64158;BME280;50449;51.528;5.076;2024-03-29T10:55:32;99229.03;;;12.41;63.88
64158;BME280;50449;51.528;5.076;2024-03-29T10:58:00;99229.56;;;12.43;64.23
64158;BME280;50449;51.528;5.076;2024-03-29T11:00:28;99227.38;;;12.45;63.96
64158;BME280;50449;51.528;5.076;2024-03-29T11:03:15;99224.06;;;12.48;63.93
64158;BME280;50449;51.528;5.076;2024-03-29T11:05:51;99202.59;;;12.51;63.83
64158;BME280;50449;51.528;5.076;2024-03-29T11:08:22;99195.28;;;12.52;64.01
64158;BME280;50449;51.528;5.076;2024-03-29T11:10:49;99193.88;;;12.54;64.13
64158;BME280;50449;51.528;5.076;2024-03-29T11:16:04;99190.63;;;12.58;63.81
64158;BME280;50449;51.528;5.076;2024-03-29T11:18:30;99182.97;;;12.60;64.11
64158;BME280;50449;51.528;5.076;2024-03-29T11:20:57;99187.81;;;12.63;63.95
64158;BME280;50449;51.528;5.076;2024-03-29T11:23:25;99186.13;;;12.67;63.94
64158;BME280;50449;51.528;5.076;2024-03-29T11:25:52;99195.28;;;12.71;63.76
64158;BME280;50449;51.528;5.076;2024-03-29T11:28:34;99191.69;;;12.75;63.70
64158;BME280;50449;51.528;5.076;2024-03-29T11:31:03;99207.56;;;12.82;63.55
64158;BME280;50449;51.528;5.076;2024-03-29T11:34:08;99212.41;;;12.85;63.73
64158;BME280;50449;51.528;5.076;2024-03-29T11:36:24;99215.03;;;12.90;63.82
64158;BME280;50449;51.528;5.076;2024-03-29T11:38:52;99217.94;;;12.94;63.45
64158;BME280;50449;51.528;5.076;2024-03-29T11:41:22;99211.66;;;12.98;63.70
64158;BME280;50449;51.528;5.076;2024-03-29T11:43:52;99215.34;;;13.03;63.56
64158;BME280;50449;51.528;5.076;2024-03-29T11:46:18;99218.59;;;13.05;63.81
64158;BME280;50449;51.528;5.076;2024-03-29T11:48:44;99223.91;;;13.10;63.42
64158;BME280;50449;51.528;5.076;2024-03-29T11:51:13;99228.78;;;13.13;63.58
64158;BME280;50449;51.528;5.076;2024-03-29T11:53:40;99222.75;;;13.16;63.45
64158;BME280;50449;51.528;5.076;2024-03-29T11:56:06;99230.00;;;13.20;63.37
64158;BME280;50449;51.528;5.076;2024-03-29T11:58:33;99227.78;;;13.23;63.38
64158;BME280;50449;51.528;5.076;2024-03-29T12:00:59;99238.84;;;13.26;63.58
64158;BME280;50449;51.528;5.076;2024-03-29T12:03:37;99232.06;;;13.29;63.48
64158;BME280;50449;51.528;5.076;2024-03-29T12:06:03;99242.00;;;13.33;63.46
64158;BME280;50449;51.528;5.076;2024-03-29T12:08:33;99233.28;;;13.36;63.56
64158;BME280;50449;51.528;5.076;2024-03-29T12:11:00;99221.81;;;13.39;63.19
64158;BME280;50449;51.528;5.076;2024-03-29T12:13:25;99215.78;;;13.42;63.33
64158;BME280;50449;51.528;5.076;2024-03-29T12:15:51;99234.22;;;13.46;62.98
64158;BME280;50449;51.528;5.076;2024-03-29T12:18:19;99232.50;;;13.50;63.07
64158;BME280;50449;51.528;5.076;2024-03-29T12:20:45;99224.25;;;13.55;62.98
64158;BME280;50449;51.528;5.076;2024-03-29T12:23:16;99217.94;;;13.59;63.20
64158;BME280;50449;51.528;5.076;2024-03-29T12:25:42;99227.09;;;13.63;63.17
64158;BME280;50449;51.528;5.076;2024-03-29T12:28:08;99219.94;;;13.68;63.34
64158;BME280;50449;51.528;5.076;2024-03-29T12:30:34;99225.28;;;13.73;63.13
64158;BME280;50449;51.528;5.076;2024-03-29T12:33:04;99229.00;;;13.77;63.36
64158;BME280;50449;51.528;5.076;2024-03-29T12:35:30;99246.00;;;13.82;63.30
64158;BME280;50449;51.528;5.076;2024-03-29T12:38:01;99238.56;;;13.88;63.10
64158;BME280;50449;51.528;5.076;2024-03-29T12:40:28;99240.38;;;13.93;62.95
64158;BME280;50449;51.528;5.076;2024-03-29T12:42:55;99242.69;;;13.99;62.75
64158;BME280;50449;51.528;5.076;2024-03-29T12:45:22;99243.38;;;14.05;62.51
64158;BME280;50449;51.528;5.076;2024-03-29T12:47:48;99238.16;;;14.09;61.82
64158;BME280;50449;51.528;5.076;2024-03-29T12:50:19;99239.47;;;14.11;62.67
64158;BME280;50449;51.528;5.076;2024-03-29T12:52:49;99233.44;;;14.14;62.79
64158;BME280;50449;51.528;5.076;2024-03-29T12:55:14;99236.03;;;14.19;62.34
64158;BME280;50449;51.528;5.076;2024-03-29T12:57:43;99247.88;;;14.23;62.32
64158;BME280;50449;51.528;5.076;2024-03-29T13:00:10;99243.19;;;14.29;62.36